Terminal Aerodrome Forecast
Issued by NWS

Home | Current Version | Previous Version | Text Only | Print | Product List | Glossary On
Versions: 1 2 3 4 5 6 7 8 9 10 11 12 13
000
FTUS46 KSEW 231700
TAFBFI
TAF
KBFI 231728Z 2318/2418 18009KT P6SM VCSH FEW021 BKN060 BKN070
     FM240200 17006KT P6SM -RA SCT030 OVC050
     FM240800 17009KT P6SM -RA OVC030
     FM241700 18010KT P6SM -SHRA SCT030 BKN050=

USA.gov is the U.S. government's official web portal to all federal, state and local government web resources and services.